createdAt,value
2019-03-19T00:01:15.892Z,4.53
2019-03-19T00:03:43.972Z,4.58
2019-03-19T00:06:12.054Z,4.15
2019-03-19T00:08:40.049Z,3.95
2019-03-19T00:11:08.063Z,3.67
2019-03-19T00:13:36.141Z,4.50
2019-03-19T00:16:04.278Z,4.47
2019-03-19T00:18:32.269Z,4.35
2019-03-19T00:21:00.308Z,4.83
2019-03-19T00:23:28.398Z,4.95
2019-03-19T00:25:56.293Z,4.78
2019-03-19T00:28:24.407Z,4.50
2019-03-19T00:30:52.454Z,4.72
2019-03-19T00:33:20.627Z,4.45
2019-03-19T00:35:54.405Z,3.60
2019-03-19T00:38:22.618Z,3.92
2019-03-19T00:40:50.660Z,3.90
2019-03-19T00:43:18.580Z,4.10
2019-03-19T00:45:46.729Z,4.00
2019-03-19T00:48:14.752Z,4.37
2019-03-19T00:50:42.966Z,3.80
2019-03-19T00:53:11.003Z,3.90
2019-03-19T00:55:40.921Z,3.67
2019-03-19T00:58:09.085Z,3.10
2019-03-19T01:00:37.299Z,3.40
2019-03-19T01:03:05.331Z,4.35
2019-03-19T01:05:33.407Z,3.80
2019-03-19T01:08:01.495Z,4.05
2019-03-19T01:10:29.795Z,4.15
2019-03-19T01:12:57.730Z,3.42
2019-03-19T01:15:25.842Z,3.70
2019-03-19T01:17:53.778Z,3.77
2019-03-19T01:20:21.860Z,3.80
2019-03-19T01:22:49.886Z,4.05
2019-03-19T01:25:18.785Z,3.42
2019-03-19T01:27:47.006Z,3.60
2019-03-19T01:30:15.119Z,3.35
2019-03-19T01:32:43.189Z,3.52
2019-03-19T01:35:11.361Z,3.40
2019-03-19T01:37:39.513Z,3.27
2019-03-19T01:40:07.680Z,3.58
2019-03-19T01:42:35.750Z,2.65
2019-03-19T01:45:05.625Z,3.25
2019-03-19T01:47:33.630Z,2.40
2019-03-19T01:50:01.731Z,2.52
2019-03-19T01:52:29.778Z,2.70
2019-03-19T01:54:57.885Z,2.85
2019-03-19T01:57:25.904Z,2.60
2019-03-19T01:59:54.028Z,2.60
2019-03-19T02:02:22.066Z,2.62
2019-03-19T02:04:50.152Z,2.72
2019-03-19T02:07:18.160Z,2.52
2019-03-19T02:09:46.257Z,2.60
2019-03-19T02:12:14.311Z,2.15
2019-03-19T02:14:42.421Z,2.22
2019-03-19T02:17:12.552Z,2.47
2019-03-19T02:19:40.920Z,2.75
2019-03-19T02:22:08.949Z,3.65
2019-03-19T02:24:37.087Z,2.30
2019-03-19T02:27:05.202Z,2.40
2019-03-19T02:29:33.310Z,2.40
2019-03-19T02:32:01.474Z,2.67
2019-03-19T02:34:29.290Z,2.67
2019-03-19T02:36:57.490Z,2.90
2019-03-19T02:39:25.567Z,3.08
2019-03-19T02:41:53.791Z,4.12
2019-03-19T02:44:23.876Z,6.62
2019-03-19T02:46:51.905Z,5.47
2019-03-19T02:49:19.815Z,4.62
2019-03-19T02:51:47.891Z,4.30
2019-03-19T02:54:15.995Z,5.35
2019-03-19T02:56:44.107Z,4.12
2019-03-19T02:59:12.150Z,4.90
2019-03-19T03:01:40.227Z,6.05
2019-03-19T03:04:08.252Z,5.17
2019-03-19T03:06:36.304Z,3.95
2019-03-19T03:09:06.059Z,3.15
2019-03-19T03:11:34.153Z,2.20
2019-03-19T03:14:02.116Z,4.00
2019-03-19T03:16:30.189Z,2.67
2019-03-19T03:18:58.100Z,2.15
2019-03-19T03:21:26.095Z,2.20
2019-03-19T03:23:54.156Z,2.50
2019-03-19T03:26:22.294Z,2.70
2019-03-19T03:28:50.223Z,2.90
2019-03-19T03:31:18.234Z,2.87
2019-03-19T03:33:46.739Z,3.22
2019-03-19T03:36:14.819Z,2.58
2019-03-19T03:38:42.876Z,2.60
2019-03-19T03:41:10.836Z,2.62
2019-03-19T03:43:38.778Z,2.75
2019-03-19T03:46:16.471Z,2.75
2019-03-19T03:48:45.023Z,2.85
2019-03-19T03:51:13.130Z,2.90
2019-03-19T03:53:41.154Z,3.40
2019-03-19T03:56:09.224Z,2.60
2019-03-19T03:58:37.178Z,2.90
2019-03-19T04:01:05.285Z,2.77
2019-03-19T04:03:33.318Z,3.02
2019-03-19T04:06:01.524Z,2.52
2019-03-19T04:08:29.579Z,3.30
2019-03-19T04:10:57.681Z,2.60
2019-03-19T04:13:25.629Z,3.15
2019-03-19T04:15:53.731Z,3.12
2019-03-19T04:18:21.857Z,3.05
2019-03-19T04:20:50.750Z,2.72
2019-03-19T04:23:18.754Z,2.55
2019-03-19T04:25:46.908Z,3.22
2019-03-19T04:28:15.013Z,2.60
2019-03-19T04:30:43.055Z,2.95
2019-03-19T04:33:11.122Z,2.77
2019-03-19T04:35:41.965Z,2.95
2019-03-19T04:38:09.192Z,2.90
2019-03-19T04:40:37.814Z,3.60
2019-03-19T04:43:05.936Z,3.27
2019-03-19T04:45:33.970Z,3.00
2019-03-19T04:48:03.609Z,3.77
2019-03-19T04:50:31.737Z,2.83
2019-03-19T04:52:59.834Z,4.15
2019-03-19T04:55:28.475Z,3.50
2019-03-19T04:57:56.474Z,4.35
2019-03-19T05:00:24.521Z,3.35
2019-03-19T05:02:52.524Z,4.08
2019-03-19T05:05:20.569Z,3.75
2019-03-19T05:07:48.650Z,3.52
2019-03-19T05:10:16.695Z,3.58
2019-03-19T05:12:44.881Z,3.10
2019-03-19T05:15:12.912Z,3.33
2019-03-19T05:17:40.910Z,3.95
2019-03-19T05:20:09.379Z,2.90
2019-03-19T05:22:37.481Z,3.33
2019-03-19T05:25:05.624Z,2.85
2019-03-19T05:27:37.730Z,3.55
2019-03-19T05:30:04.810Z,3.08
2019-03-19T05:32:32.914Z,2.85
2019-03-19T05:35:00.842Z,3.35
2019-03-19T05:37:30.804Z,3.30
2019-03-19T05:39:58.880Z,3.08
2019-03-19T05:42:26.912Z,3.95
2019-03-19T05:44:54.975Z,2.95
2019-03-19T05:47:23.073Z,3.60
2019-03-19T05:49:50.987Z,3.65
2019-03-19T05:52:18.970Z,3.33
2019-03-19T05:54:46.911Z,3.35
2019-03-19T05:57:14.928Z,3.87
2019-03-19T05:59:42.889Z,3.45
2019-03-19T06:02:10.941Z,3.67
2019-03-19T06:04:39.001Z,3.85
2019-03-19T06:07:07.088Z,3.60
2019-03-19T06:09:35.157Z,3.50
2019-03-19T06:12:04.135Z,3.40
2019-03-19T06:14:32.178Z,3.58
2019-03-19T06:17:00.185Z,4.00
2019-03-19T06:19:28.225Z,3.83
2019-03-19T06:21:56.846Z,2.72
2019-03-19T06:24:25.016Z,3.80
2019-03-19T06:26:52.971Z,4.97
2019-03-19T06:29:21.125Z,5.05
2019-03-19T06:31:49.133Z,3.98
2019-03-19T06:34:17.448Z,5.10
2019-03-19T06:36:46.364Z,4.00
2019-03-19T06:39:14.604Z,4.30
2019-03-19T06:41:42.503Z,4.28
2019-03-19T06:44:10.430Z,4.67
2019-03-19T06:46:38.488Z,4.85
2019-03-19T06:49:06.530Z,4.80
2019-03-19T06:51:34.584Z,5.47
2019-03-19T06:54:02.659Z,5.00
2019-03-19T06:56:30.695Z,4.70
2019-03-19T06:58:58.573Z,4.75
2019-03-19T07:01:26.594Z,4.70
2019-03-19T07:03:54.695Z,4.95
2019-03-19T07:06:24.823Z,4.10
2019-03-19T07:08:52.739Z,4.78
2019-03-19T07:11:22.573Z,5.12
2019-03-19T07:13:50.889Z,3.98
2019-03-19T07:16:18.910Z,4.20
2019-03-19T07:18:47.042Z,4.62
2019-03-19T07:21:16.128Z,4.95
2019-03-19T07:23:44.300Z,4.97
2019-03-19T07:26:13.038Z,4.30
2019-03-19T07:28:43.838Z,4.30
2019-03-19T07:31:11.777Z,4.75
2019-03-19T07:33:39.795Z,5.22
2019-03-19T07:36:07.821Z,3.90
2019-03-19T07:38:36.145Z,3.55
2019-03-19T07:41:04.215Z,4.10
2019-03-19T07:43:32.867Z,3.00
2019-03-19T07:46:00.938Z,3.10
2019-03-19T07:48:29.081Z,2.72
2019-03-19T07:50:57.047Z,2.72
2019-03-19T07:53:25.183Z,2.70
2019-03-19T07:55:53.688Z,3.25
2019-03-19T07:58:32.704Z,2.55
2019-03-19T08:00:51.831Z,2.95
2019-03-19T08:03:19.978Z,2.55
2019-03-19T08:05:48.005Z,2.33
2019-03-19T08:08:16.109Z,2.40
2019-03-19T08:10:44.170Z,2.20
2019-03-19T08:13:12.313Z,3.00
2019-03-19T08:15:40.384Z,2.22
2019-03-19T08:18:08.351Z,2.20
2019-03-19T08:20:36.357Z,2.27
2019-03-19T08:23:04.337Z,2.50
2019-03-19T08:25:33.097Z,2.58
2019-03-19T08:28:01.279Z,2.30
2019-03-19T08:30:29.445Z,2.35
2019-03-19T08:32:57.480Z,1.60
2019-03-19T08:35:25.570Z,2.08
2019-03-19T08:37:53.694Z,2.20
2019-03-19T08:40:23.013Z,2.60
2019-03-19T08:42:51.069Z,2.17
2019-03-19T08:45:19.190Z,2.50
2019-03-19T08:47:48.788Z,1.90
2019-03-19T08:50:17.032Z,2.17
2019-03-19T08:52:45.071Z,1.37
2019-03-19T08:55:13.223Z,1.32
2019-03-19T08:57:44.552Z,2.33
2019-03-19T09:00:15.962Z,1.82
2019-03-19T09:02:43.935Z,1.72
2019-03-19T09:05:12.235Z,1.95
2019-03-19T09:07:40.321Z,1.90
2019-03-19T09:10:09.148Z,2.02
2019-03-19T09:12:38.124Z,1.87
2019-03-19T09:15:07.946Z,1.90
2019-03-19T09:17:36.391Z,1.85
2019-03-19T09:20:05.800Z,2.33
2019-03-19T09:22:34.281Z,1.98
2019-03-19T09:25:02.378Z,2.33
2019-03-19T09:27:30.421Z,48.35
2019-03-19T09:29:58.619Z,3.80
2019-03-19T09:32:26.583Z,2.08
2019-03-19T09:34:54.780Z,2.10
2019-03-19T09:37:22.819Z,1.57
2019-03-19T09:39:51.576Z,1.92
2019-03-19T09:42:19.605Z,2.60
2019-03-19T09:44:57.967Z,2.37
2019-03-19T09:47:17.676Z,2.30
2019-03-19T09:49:48.732Z,2.00
2019-03-19T09:52:16.693Z,2.30
2019-03-19T09:54:44.797Z,2.52
2019-03-19T09:57:13.737Z,2.47
2019-03-19T09:59:44.526Z,2.10
2019-03-19T10:02:12.102Z,2.40
2019-03-19T10:04:40.208Z,2.08
2019-03-19T10:07:08.884Z,1.60
2019-03-19T10:09:37.004Z,1.70
2019-03-19T10:12:05.123Z,2.22
2019-03-19T10:14:33.340Z,3.62
2019-03-19T10:17:01.474Z,3.20
2019-03-19T10:19:29.577Z,2.33
2019-03-19T10:21:57.659Z,1.77
2019-03-19T10:24:25.718Z,2.42
2019-03-19T10:26:53.862Z,1.85
2019-03-19T10:29:21.900Z,2.20
2019-03-19T10:31:50.027Z,2.10
2019-03-19T10:34:18.122Z,2.40
2019-03-19T10:36:46.206Z,2.80
2019-03-19T10:39:14.268Z,2.33
2019-03-19T10:41:42.349Z,1.87
2019-03-19T10:44:10.375Z,2.20
2019-03-19T10:46:38.459Z,2.10
2019-03-19T10:49:06.463Z,2.10
2019-03-19T10:51:35.260Z,1.50
2019-03-19T10:54:03.524Z,1.87
2019-03-19T10:56:31.648Z,2.10
2019-03-19T10:58:59.697Z,2.77
2019-03-19T11:01:27.818Z,2.20
2019-03-19T11:03:55.957Z,2.20
2019-03-19T11:06:24.151Z,2.40
2019-03-19T11:08:52.217Z,33.92
2019-03-19T11:11:20.328Z,81.08
2019-03-19T11:13:48.654Z,29.63
2019-03-19T11:16:16.680Z,49.53
2019-03-19T11:18:44.731Z,4.30
2019-03-19T11:21:12.841Z,2.47
2019-03-19T11:23:40.817Z,2.23
2019-03-19T11:26:08.947Z,2.37
2019-03-19T11:28:37.108Z,2.40
2019-03-19T11:31:05.532Z,2.17
2019-03-19T11:33:33.558Z,3.10
2019-03-19T11:36:01.652Z,1.77
2019-03-19T11:38:29.472Z,2.23
2019-03-19T11:40:57.654Z,1.60
2019-03-19T11:43:25.695Z,2.73
2019-03-19T11:45:53.879Z,1.80
2019-03-19T11:48:21.928Z,1.70
2019-03-19T11:50:50.417Z,1.67
2019-03-19T11:53:18.458Z,2.10
2019-03-19T11:55:46.576Z,2.40
2019-03-19T11:58:14.574Z,2.10
2019-03-19T12:00:45.149Z,2.23
2019-03-19T12:03:16.406Z,2.10
2019-03-19T12:05:43.239Z,2.17
2019-03-19T12:08:15.542Z,2.37
2019-03-19T12:10:43.626Z,2.55
2019-03-19T12:13:12.547Z,3.08
2019-03-19T12:15:40.600Z,2.00
2019-03-19T12:18:09.224Z,2.22
2019-03-19T12:20:37.316Z,1.90
2019-03-19T12:23:05.867Z,1.90
2019-03-19T12:25:33.977Z,2.30
2019-03-19T12:28:02.309Z,2.10
2019-03-19T12:30:30.429Z,2.00
2019-03-19T12:32:58.418Z,2.20
2019-03-19T12:35:26.537Z,2.40
2019-03-19T12:37:54.704Z,2.40
2019-03-19T12:40:22.807Z,2.37
2019-03-19T12:42:50.959Z,1.57
2019-03-19T12:45:19.537Z,2.23
2019-03-19T12:47:47.718Z,1.70
2019-03-19T12:50:16.156Z,1.70
2019-03-19T12:52:44.234Z,1.80
2019-03-19T12:55:12.295Z,2.00
2019-03-19T12:57:40.448Z,2.13
2019-03-19T13:00:19.158Z,1.73
2019-03-19T13:02:47.684Z,1.63
2019-03-19T13:05:15.802Z,1.83
2019-03-19T13:07:44.012Z,2.30
2019-03-19T13:10:13.945Z,1.70
2019-03-19T13:12:42.637Z,1.73
2019-03-19T13:15:11.263Z,1.80
2019-03-19T13:17:39.538Z,1.87
2019-03-19T13:20:08.682Z,1.83
2019-03-19T13:22:36.818Z,2.10
2019-03-19T13:25:05.282Z,1.87
2019-03-19T13:27:33.345Z,1.90
2019-03-19T13:30:01.479Z,1.43
2019-03-19T13:32:29.517Z,1.63
2019-03-19T13:34:57.355Z,1.80
2019-03-19T13:37:25.384Z,1.60
2019-03-19T13:39:53.497Z,1.40
2019-03-19T13:42:21.681Z,1.87
2019-03-19T13:44:49.620Z,1.50
2019-03-19T13:47:17.745Z,1.23
2019-03-19T13:49:45.805Z,1.70
2019-03-19T13:52:13.923Z,1.60
2019-03-19T13:54:41.973Z,1.80
2019-03-19T13:57:10.079Z,1.90
2019-03-19T13:59:38.183Z,1.80
2019-03-19T14:02:06.281Z,2.10
2019-03-19T14:04:34.233Z,1.73
2019-03-19T14:07:02.277Z,2.07
2019-03-19T14:09:30.504Z,1.43
2019-03-19T14:12:00.868Z,1.77
2019-03-19T14:14:29.065Z,1.87
2019-03-19T14:16:57.227Z,2.20
2019-03-19T14:19:25.232Z,2.20
2019-03-19T14:21:53.319Z,1.70
2019-03-19T14:24:21.404Z,1.47
2019-03-19T14:26:50.476Z,1.57
2019-03-19T14:29:18.726Z,1.60
2019-03-19T14:31:46.731Z,1.50
2019-03-19T14:34:15.395Z,1.90
2019-03-19T14:36:43.322Z,1.63
2019-03-19T14:39:11.414Z,1.70
2019-03-19T14:41:39.547Z,1.50
2019-03-19T14:44:08.100Z,2.00
2019-03-19T14:46:36.309Z,2.13
2019-03-19T14:49:04.535Z,1.73
2019-03-19T14:51:32.510Z,1.70
2019-03-19T14:54:00.730Z,1.87
2019-03-19T14:56:28.575Z,2.33
2019-03-19T14:58:56.668Z,1.60
2019-03-19T15:01:24.696Z,3.60
2019-03-19T15:03:52.844Z,2.07
2019-03-19T15:06:20.809Z,2.97
2019-03-19T15:08:48.894Z,2.80
2019-03-19T15:11:17.318Z,3.27
2019-03-19T15:13:45.375Z,3.33
2019-03-19T15:16:13.468Z,2.40
2019-03-19T15:18:42.128Z,3.00
2019-03-19T15:21:10.192Z,2.53
2019-03-19T15:23:38.337Z,2.57
2019-03-19T15:26:06.482Z,2.37
2019-03-19T15:28:34.691Z,2.87
2019-03-19T15:31:02.804Z,3.70
2019-03-19T15:33:30.920Z,3.30
2019-03-19T15:35:59.932Z,5.33
2019-03-19T15:38:28.128Z,4.53
2019-03-19T15:40:56.098Z,3.70
2019-03-19T15:43:25.055Z,5.17
2019-03-19T15:45:52.993Z,4.17
2019-03-19T15:48:20.981Z,3.10
2019-03-19T15:50:48.927Z,3.03
2019-03-19T15:53:16.906Z,3.70
2019-03-19T15:55:45.473Z,5.17
2019-03-19T15:58:13.330Z,7.60
2019-03-19T16:00:41.541Z,10.23
2019-03-19T16:03:09.597Z,6.47
2019-03-19T16:05:37.753Z,6.53
2019-03-19T16:08:05.837Z,4.67
2019-03-19T16:10:33.939Z,4.63
2019-03-19T16:13:02.023Z,3.83
2019-03-19T16:15:30.339Z,5.70
2019-03-19T16:17:58.375Z,5.03
2019-03-19T16:20:26.476Z,4.70
2019-03-19T16:22:54.550Z,4.60
2019-03-19T16:25:22.666Z,4.57
2019-03-19T16:27:50.599Z,7.87
2019-03-19T16:30:18.704Z,7.17
2019-03-19T16:32:46.821Z,4.93
2019-03-19T16:35:15.690Z,3.43
2019-03-19T16:37:43.710Z,3.20
2019-03-19T16:40:14.577Z,2.17
2019-03-19T16:42:42.694Z,2.70
2019-03-19T16:45:10.827Z,2.57
2019-03-19T16:47:38.843Z,2.63
2019-03-19T16:50:07.659Z,2.80
2019-03-19T16:52:35.618Z,3.90
2019-03-19T16:55:05.119Z,3.03
2019-03-19T16:57:33.178Z,2.90
2019-03-19T17:00:01.056Z,3.30
2019-03-19T17:02:29.075Z,3.10
2019-03-19T17:04:57.245Z,3.27
2019-03-19T17:07:25.284Z,3.27
2019-03-19T17:09:53.375Z,3.57
2019-03-19T17:12:21.347Z,3.17
2019-03-19T17:14:49.447Z,3.20
2019-03-19T17:17:17.511Z,3.63
2019-03-19T17:19:45.769Z,3.77
2019-03-19T17:22:13.803Z,12.00
2019-03-19T17:24:41.863Z,7.67
2019-03-19T17:27:09.905Z,10.60
2019-03-19T17:29:38.192Z,7.30
2019-03-19T17:32:12.846Z,5.27
2019-03-19T17:34:36.185Z,14.80
2019-03-19T17:37:04.252Z,11.20
2019-03-19T17:39:32.246Z,7.03
2019-03-19T17:42:01.015Z,6.23
2019-03-19T17:44:29.133Z,6.00
2019-03-19T17:46:57.049Z,6.20
2019-03-19T17:49:25.032Z,5.07
2019-03-19T17:51:53.127Z,4.90
2019-03-19T17:54:21.126Z,6.33
2019-03-19T17:56:49.150Z,7.03
2019-03-19T17:59:17.147Z,7.00
2019-03-19T18:01:45.638Z,5.10
2019-03-19T18:04:13.651Z,5.33
2019-03-19T18:06:43.154Z,5.27
2019-03-19T18:09:11.477Z,4.87
2019-03-19T18:11:39.399Z,4.40
2019-03-19T18:14:08.076Z,3.93
2019-03-19T18:16:36.214Z,4.83
2019-03-19T18:19:04.382Z,5.70
2019-03-19T18:21:32.479Z,5.93
2019-03-19T18:24:00.545Z,5.17
2019-03-19T18:26:28.993Z,5.50
2019-03-19T18:28:57.036Z,6.10
2019-03-19T18:31:26.487Z,7.13
2019-03-19T18:33:54.571Z,6.97
2019-03-19T18:36:22.810Z,7.63
2019-03-19T18:38:50.875Z,6.80
2019-03-19T18:41:18.993Z,7.77
2019-03-19T18:43:47.278Z,7.40
2019-03-19T18:46:15.343Z,8.93
2019-03-19T18:48:43.314Z,9.60
2019-03-19T18:51:11.302Z,10.00
2019-03-19T18:53:46.161Z,11.37
2019-03-19T18:56:14.338Z,13.70
2019-03-19T18:58:42.300Z,16.50
2019-03-19T19:01:10.412Z,17.37
2019-03-19T19:03:40.246Z,18.20
2019-03-19T19:06:08.257Z,19.13
2019-03-19T19:08:37.153Z,17.80
2019-03-19T19:11:05.625Z,17.97
2019-03-19T19:13:33.843Z,17.13
2019-03-19T19:16:01.974Z,17.47
2019-03-19T19:18:31.086Z,19.20
2019-03-19T19:20:59.082Z,18.70
2019-03-19T19:23:27.140Z,19.00
2019-03-19T19:25:55.142Z,18.50
2019-03-19T19:28:23.243Z,17.70
2019-03-19T19:30:51.300Z,17.17
2019-03-19T19:33:20.372Z,19.93
2019-03-19T19:35:48.436Z,18.23
2019-03-19T19:38:16.334Z,17.40
2019-03-19T19:40:44.510Z,97.57
2019-03-19T19:43:12.544Z,204.90
2019-03-19T19:45:40.517Z,97.33
2019-03-19T19:48:08.800Z,35.00
2019-03-19T19:50:37.036Z,22.30
2019-03-19T19:53:05.244Z,22.13
2019-03-19T19:55:33.218Z,21.20
2019-03-19T19:58:01.405Z,21.73
2019-03-19T20:00:29.489Z,20.20
2019-03-19T20:02:57.622Z,17.63
2019-03-19T20:05:25.466Z,23.15
2019-03-19T20:07:53.599Z,20.73
2019-03-19T20:10:21.703Z,15.95
2019-03-19T20:12:49.825Z,122.10
2019-03-19T20:15:17.980Z,41.40
2019-03-19T20:17:46.088Z,24.97
2019-03-19T20:20:15.618Z,20.90
2019-03-19T20:22:44.858Z,22.57
2019-03-19T20:25:13.278Z,19.65
2019-03-19T20:27:41.380Z,20.07
2019-03-19T20:30:12.673Z,23.10
2019-03-19T20:32:40.842Z,24.53
2019-03-19T20:35:09.392Z,21.55
2019-03-19T20:37:37.518Z,22.32
2019-03-19T20:40:06.293Z,22.65
2019-03-19T20:42:34.333Z,27.53
2019-03-19T20:45:02.452Z,25.20
2019-03-19T20:47:30.481Z,23.30
2019-03-19T20:49:58.438Z,22.03
2019-03-19T20:52:26.473Z,22.13
2019-03-19T20:54:54.302Z,20.37
2019-03-19T20:57:25.669Z,20.23
2019-03-19T20:59:53.822Z,19.67
2019-03-19T21:02:21.844Z,19.53
2019-03-19T21:04:49.911Z,19.65
2019-03-19T21:07:17.987Z,20.37
2019-03-19T21:09:46.205Z,20.27
2019-03-19T21:12:14.364Z,20.30
2019-03-19T21:14:43.156Z,27.32
2019-03-19T21:17:12.155Z,28.50
2019-03-19T21:19:40.102Z,23.15
2019-03-19T21:22:09.172Z,20.68
2019-03-19T21:24:37.251Z,19.70
2019-03-19T21:27:05.449Z,20.45
2019-03-19T21:29:33.544Z,21.02
2019-03-19T21:32:01.791Z,22.60
2019-03-19T21:34:29.867Z,22.13
2019-03-19T21:36:58.584Z,20.82
2019-03-19T21:39:26.592Z,20.15
2019-03-19T21:41:54.955Z,22.52
2019-03-19T21:44:23.652Z,21.52
2019-03-19T21:46:52.161Z,20.75
2019-03-19T21:49:20.168Z,22.52
2019-03-19T21:51:48.229Z,20.62
2019-03-19T21:54:16.470Z,21.12
2019-03-19T21:56:44.410Z,20.62
2019-03-19T21:59:12.609Z,19.42
2019-03-19T22:01:40.740Z,19.30
2019-03-19T22:04:08.744Z,20.27
2019-03-19T22:06:36.676Z,22.98
2019-03-19T22:09:06.286Z,23.73
2019-03-19T22:11:34.238Z,24.18
2019-03-19T22:14:02.354Z,24.80
2019-03-19T22:16:30.394Z,23.83
2019-03-19T22:18:58.408Z,24.98
2019-03-19T22:21:26.466Z,23.47
2019-03-19T22:23:54.486Z,23.65
2019-03-19T22:26:22.552Z,25.08
2019-03-19T22:28:50.715Z,24.27
2019-03-19T22:31:18.659Z,22.45
2019-03-19T22:33:46.832Z,22.32
2019-03-19T22:36:14.859Z,22.80
2019-03-19T22:38:42.944Z,21.87
2019-03-19T22:41:10.857Z,23.73
2019-03-19T22:43:39.059Z,24.90
2019-03-19T22:46:07.086Z,26.55
2019-03-19T22:48:35.295Z,27.82
2019-03-19T22:51:03.413Z,27.58
2019-03-19T22:53:32.115Z,27.85
2019-03-19T22:56:00.151Z,28.12
2019-03-19T22:58:28.259Z,28.87
2019-03-19T23:00:57.744Z,28.77
2019-03-19T23:03:25.940Z,27.45
2019-03-19T23:05:53.876Z,30.32
2019-03-19T23:08:21.953Z,28.27
2019-03-19T23:10:50.026Z,27.93
2019-03-19T23:13:18.146Z,28.65
2019-03-19T23:15:46.073Z,27.90
2019-03-19T23:18:14.208Z,29.02
2019-03-19T23:20:43.296Z,28.32
2019-03-19T23:23:11.507Z,27.22
2019-03-19T23:25:39.570Z,27.62
2019-03-19T23:28:07.773Z,28.62
2019-03-19T23:30:35.857Z,30.32
2019-03-19T23:33:04.871Z,27.93
2019-03-19T23:35:33.043Z,28.85
2019-03-19T23:38:01.103Z,28.40
2019-03-19T23:40:29.217Z,29.07
2019-03-19T23:42:57.251Z,28.38
2019-03-19T23:45:25.386Z,29.27
2019-03-19T23:47:53.433Z,29.70
2019-03-19T23:50:21.522Z,29.63
2019-03-19T23:52:49.556Z,30.12
2019-03-19T23:55:17.746Z,29.60
2019-03-19T23:57:45.755Z,29.12
